Time;durP1;ratioP1;P1;durP2;ratioP2;P2;SDS_P1;SDS_P2;PMS_P1;PMS_P2;Temp;Humidity;BMP_temperature;BMP_pressure;BME280_temperature;BME280_humidity;BME280_pressure;Samples;Min_cycle;Max_cycle;Signal;HPM_P1;HPM_P2
2023/01/17 00:02:07;;;;;;;0.70;0.70;;;4.30;99.90;;;;;;5021540;28;20614;-72
2023/01/17 00:10:10;;;;;;;0.85;0.85;;;4.20;99.90;;;;;;5010292;28;20251;-72
2023/01/17 00:12:36;;;;;;;1.05;1.00;;;4.10;99.90;;;;;;5008650;28;20199;-72
2023/01/17 00:15:02;;;;;;;0.70;0.70;;;4.10;99.90;;;;;;5026267;28;20181;-72
2023/01/17 00:17:28;;;;;;;1.02;1.02;;;4.10;99.90;;;;;;5020346;28;20177;-72
2023/01/17 00:26:02;;;;;;;0.60;0.60;;;4.10;99.90;;;;;;5014314;28;20269;-73
2023/01/17 01:35:21;;;;;;;0.70;0.70;;;3.50;99.90;;;;;;5011808;28;20812;-72
2023/01/17 01:37:47;;;;;;;0.77;0.77;;;3.50;99.90;;;;;;5013656;28;20204;-72
2023/01/17 01:40:14;;;;;;;0.93;0.90;;;3.50;99.90;;;;;;5012631;28;20645;-72
2023/01/17 01:42:53;;;;;;;0.98;0.98;;;3.50;99.90;;;;;;5009691;28;20189;-72
2023/01/17 01:45:22;;;;;;;1.05;0.95;;;3.40;99.90;;;;;;5004845;28;20181;-72
2023/01/17 01:47:50;;;;;;;0.55;0.55;;;3.40;99.90;;;;;;5004382;28;20196;-72
2023/01/17 01:50:17;;;;;;;0.70;0.70;;;3.30;99.90;;;;;;5012885;28;20637;-72
2023/01/17 01:52:46;;;;;;;0.50;0.50;;;3.30;99.90;;;;;;5010252;28;20207;-73
2023/01/17 01:55:24;;;;;;;2.30;0.80;;;3.40;99.90;;;;;;5012820;28;20189;-73
2023/01/17 01:57:54;;;;;;;0.93;0.50;;;3.40;99.90;;;;;;5007646;28;20193;-72
2023/01/17 02:00:28;;;;;;;0.68;0.68;;;3.40;99.90;;;;;;5009699;28;20231;-72
2023/01/17 02:02:57;;;;;;;1.17;0.80;;;3.40;99.90;;;;;;5008771;28;20268;-72
2023/01/17 02:05:24;;;;;;;0.70;0.70;;;3.40;99.90;;;;;;5026194;28;20258;-73
2023/01/17 02:07:55;;;;;;;0.55;0.55;;;3.40;99.90;;;;;;5014994;28;20185;-72
2023/01/17 02:10:21;;;;;;;1.40;0.82;;;3.50;99.90;;;;;;5011236;28;20180;-72
2023/01/17 02:12:48;;;;;;;0.70;0.70;;;3.60;99.90;;;;;;5016423;28;20200;-72
2023/01/17 02:15:13;;;;;;;0.75;0.50;;;3.50;99.90;;;;;;5015843;28;20177;-72
2023/01/17 02:17:59;;;;;;;0.68;0.68;;;3.50;99.90;;;;;;5018289;28;20188;-72
2023/01/17 02:20:57;;;;;;;0.82;0.82;;;3.50;99.90;;;;;;5017013;28;20251;-72
2023/01/17 02:23:43;;;;;;;0.75;0.75;;;3.50;99.90;;;;;;5016015;28;20209;-72
2023/01/17 02:26:23;;;;;;;0.68;0.65;;;3.50;99.90;;;;;;5015792;28;20203;-73
2023/01/17 02:29:10;;;;;;;0.60;0.60;;;3.50;99.90;;;;;;5010958;28;20182;-72
2023/01/17 02:31:50;;;;;;;0.65;0.65;;;3.50;99.90;;;;;;5021250;28;20184;-72
2023/01/17 02:34:42;;;;;;;0.70;0.70;;;3.50;99.90;;;;;;5014756;28;20208;-72
2023/01/17 02:37:14;;;;;;;0.70;0.70;;;3.50;99.90;;;;;;5019652;28;20724;-72
2023/01/17 02:39:50;;;;;;;0.63;0.63;;;3.50;99.90;;;;;;5025121;28;20180;-72
2023/01/17 02:42:19;;;;;;;0.60;0.60;;;3.50;99.90;;;;;;5012439;28;20192;-72
2023/01/17 02:44:44;;;;;;;0.50;0.50;;;3.50;99.90;;;;;;5028984;28;20295;-72
2023/01/17 02:47:28;;;;;;;0.88;0.73;;;3.40;99.90;;;;;;5019295;28;20641;-72
2023/01/17 02:50:01;;;;;;;0.90;0.90;;;3.40;99.90;;;;;;5019227;28;20165;-72
2023/01/17 02:52:48;;;;;;;0.90;0.90;;;3.40;99.90;;;;;;5013265;28;20177;-72
2023/01/17 02:55:19;;;;;;;0.45;0.45;;;3.30;99.90;;;;;;5018456;28;20599;-72
2023/01/17 02:58:02;;;;;;;0.85;0.85;;;3.30;99.90;;;;;;5026986;28;20224;-72
2023/01/17 03:00:43;;;;;;;0.75;0.63;;;3.30;99.90;;;;;;5026821;28;20278;-72
2023/01/17 03:03:29;;;;;;;0.85;0.85;;;3.30;99.90;;;;;;5011186;28;20703;-73
2023/01/17 03:06:10;;;;;;;0.60;0.60;;;3.30;99.90;;;;;;5019524;28;20185;-73
2023/01/17 03:08:39;;;;;;;0.88;0.88;;;3.30;99.90;;;;;;5020100;28;20177;-72
2023/01/17 03:11:07;;;;;;;0.50;0.50;;;3.30;99.90;;;;;;5019667;28;20181;-72
2023/01/17 03:13:33;;;;;;;0.47;0.47;;;3.30;99.90;;;;;;5017444;28;20211;-72
2023/01/17 03:15:59;;;;;;;0.90;0.90;;;3.20;99.90;;;;;;5017570;28;20639;-73
2023/01/17 03:18:25;;;;;;;0.77;0.77;;;3.20;99.90;;;;;;5021680;28;20718;-73
2023/01/17 03:20:52;;;;;;;0.55;0.55;;;3.10;99.90;;;;;;5016325;28;20250;-73
2023/01/17 03:23:17;;;;;;;0.75;0.75;;;3.10;99.90;;;;;;5018903;28;20592;-73
2023/01/17 03:25:43;;;;;;;0.65;0.65;;;3.10;99.90;;;;;;5024550;28;20187;-73
2023/01/17 03:28:09;;;;;;;0.47;0.47;;;3.00;99.90;;;;;;5031901;28;20199;-73
2023/01/17 03:30:34;;;;;;;0.75;0.70;;;3.00;99.90;;;;;;5023534;28;20429;-73
2023/01/17 03:33:00;;;;;;;1.48;1.08;;;3.00;99.90;;;;;;5022234;28;20749;-73
2023/01/17 03:35:27;;;;;;;0.63;0.63;;;2.90;99.90;;;;;;5022219;28;20181;-73
2023/01/17 03:37:52;;;;;;;1.50;1.08;;;2.90;99.90;;;;;;5016122;28;20179;-73
2023/01/17 03:40:18;;;;;;;0.55;0.55;;;2.80;99.90;;;;;;5022793;28;20276;-72
2023/01/17 03:42:43;;;;;;;1.05;1.05;;;2.80;99.90;;;;;;5024540;28;20208;-73
2023/01/17 03:45:09;;;;;;;0.70;0.70;;;2.90;99.90;;;;;;5022838;28;20177;-72
2023/01/17 03:47:35;;;;;;;1.15;1.05;;;2.90;99.90;;;;;;5027235;28;20523;-72
2023/01/17 03:50:01;;;;;;;1.65;0.60;;;3.00;99.90;;;;;;5026813;28;20176;-71
2023/01/17 03:52:27;;;;;;;0.75;0.75;;;3.20;99.90;;;;;;5027549;28;20268;-72
2023/01/17 03:54:52;;;;;;;1.10;1.10;;;3.30;99.90;;;;;;5015495;28;20761;-72
2023/01/17 03:57:18;;;;;;;0.82;0.82;;;3.30;99.90;;;;;;5010840;28;20193;-74
2023/01/17 03:59:44;;;;;;;0.88;0.88;;;3.30;99.90;;;;;;5007847;28;20177;-72
2023/01/17 04:02:10;;;;;;;1.75;0.57;;;3.40;99.90;;;;;;5008976;28;20186;-72
2023/01/17 04:04:36;;;;;;;1.10;1.10;;;3.40;99.90;;;;;;5012525;28;20213;-72
2023/01/17 04:07:01;;;;;;;0.80;0.80;;;3.40;99.90;;;;;;5011274;28;20191;-72
2023/01/17 04:09:32;;;;;;;1.42;0.98;;;3.50;99.90;;;;;;5017085;28;20192;-73
2023/01/17 04:11:58;;;;;;;1.00;0.90;;;3.40;99.90;;;;;;5009200;28;20185;-73
2023/01/17 04:14:24;;;;;;;0.82;0.82;;;3.40;99.90;;;;;;5013302;28;20573;-72
2023/01/17 04:16:49;;;;;;;0.88;0.88;;;3.40;99.90;;;;;;5010331;28;20249;-73
2023/01/17 04:19:16;;;;;;;0.90;0.88;;;3.50;99.90;;;;;;5008037;28;20184;-73
2023/01/17 04:21:41;;;;;;;0.50;0.50;;;3.50;99.90;;;;;;5011331;28;20555;-72
2023/01/17 04:24:07;;;;;;;0.63;0.63;;;3.50;99.90;;;;;;5009147;28;20204;-72
2023/01/17 04:26:33;;;;;;;0.98;0.98;;;3.60;99.90;;;;;;5011657;28;20707;-74
2023/01/17 04:28:58;;;;;;;0.95;0.95;;;3.60;99.90;;;;;;5011136;28;20816;-73
2023/01/17 04:31:24;;;;;;;0.77;0.77;;;3.60;99.90;;;;;;5014072;28;20196;-73
2023/01/17 04:33:49;;;;;;;1.33;1.20;;;3.70;99.90;;;;;;5013469;28;20197;-73
2023/01/17 04:36:15;;;;;;;0.80;0.80;;;3.70;99.90;;;;;;5006890;28;20644;-72
2023/01/17 04:38:40;;;;;;;1.00;1.00;;;3.70;99.90;;;;;;5011104;28;20177;-72
2023/01/17 04:41:06;;;;;;;2.10;0.90;;;3.70;99.90;;;;;;5007401;28;20574;-73
2023/01/17 04:43:31;;;;;;;1.10;1.10;;;3.70;99.90;;;;;;5016314;28;20205;-73
2023/01/17 04:45:57;;;;;;;1.00;1.00;;;3.70;99.90;;;;;;5012608;28;20260;-73
2023/01/17 04:48:23;;;;;;;0.82;0.82;;;3.60;99.90;;;;;;5008099;28;20181;-73
2023/01/17 04:50:49;;;;;;;1.10;1.10;;;3.60;99.90;;;;;;5006622;28;20214;-73
2023/01/17 04:53:15;;;;;;;1.10;1.10;;;3.50;99.90;;;;;;5023583;28;20675;-73
2023/01/17 04:55:45;;;;;;;1.20;1.10;;;3.50;99.90;;;;;;5022679;28;20191;-73
2023/01/17 04:58:10;;;;;;;1.33;1.23;;;3.60;99.90;;;;;;5027424;28;20207;-73
2023/01/17 05:00:36;;;;;;;1.20;1.17;;;3.60;99.90;;;;;;5016311;28;20299;-73
2023/01/17 05:03:02;;;;;;;1.77;1.40;;;3.70;99.90;;;;;;5018265;28;20334;-73
2023/01/17 05:05:27;;;;;;;2.95;1.30;;;3.60;99.90;;;;;;5008689;28;20677;-73
2023/01/17 05:07:57;;;;;;;3.00;1.77;;;3.50;99.90;;;;;;5025179;28;20678;-73
2023/01/17 05:10:23;;;;;;;1.30;1.30;;;3.40;99.90;;;;;;5023613;28;20204;-72
2023/01/17 05:12:56;;;;;;;2.55;1.17;;;3.30;99.90;;;;;;5015589;28;20342;-73
2023/01/17 05:15:23;;;;;;;1.65;1.55;;;3.30;99.90;;;;;;5024995;28;20181;-73
2023/01/17 05:17:50;;;;;;;1.30;1.20;;;3.30;99.90;;;;;;5024405;28;20192;-73
2023/01/17 05:20:16;;;;;;;4.38;1.95;;;3.40;99.90;;;;;;5026515;28;20181;-73
2023/01/17 05:22:42;;;;;;;1.15;1.15;;;3.40;99.90;;;;;;5025992;28;20714;-73
2023/01/17 05:25:07;;;;;;;1.20;1.20;;;3.30;99.90;;;;;;5010391;28;20200;-73
2023/01/17 05:27:33;;;;;;;1.30;1.20;;;3.30;99.90;;;;;;5027332;28;20259;-72
2023/01/17 05:29:59;;;;;;;1.08;1.08;;;3.40;99.90;;;;;;5026951;28;20172;-72
2023/01/17 05:32:24;;;;;;;1.38;1.33;;;3.30;99.90;;;;;;5025486;28;20487;-72
2023/01/17 05:34:50;;;;;;;1.50;1.40;;;3.30;99.90;;;;;;5022351;28;20274;-73
2023/01/17 05:37:16;;;;;;;1.92;1.15;;;3.20;99.90;;;;;;5016168;28;20603;-73
2023/01/17 05:39:41;;;;;;;2.25;1.50;;;3.20;99.90;;;;;;5025237;28;20193;-72
2023/01/17 05:42:07;;;;;;;2.78;1.50;;;3.20;99.90;;;;;;5015235;28;20190;-73
2023/01/17 05:44:32;;;;;;;0.88;0.88;;;3.10;99.90;;;;;;5022178;28;20754;-73
2023/01/17 05:46:58;;;;;;;2.03;1.92;;;3.10;99.90;;;;;;5024207;28;20283;-72
2023/01/17 05:49:24;;;;;;;1.33;1.23;;;3.00;99.90;;;;;;5020098;28;20648;-73
2023/01/17 05:51:50;;;;;;;1.50;1.40;;;2.90;99.90;;;;;;5024445;28;20180;-73
2023/01/17 05:54:16;;;;;;;2.25;1.50;;;2.90;99.90;;;;;;5014766;28;20718;-73
2023/01/17 05:56:41;;;;;;;1.42;1.25;;;2.70;99.90;;;;;;5029925;28;20236;-73
2023/01/17 05:59:07;;;;;;;1.20;1.10;;;2.60;99.90;;;;;;5020892;28;20672;-73
2023/01/17 06:01:32;;;;;;;1.70;1.60;;;2.40;99.90;;;;;;5011011;28;20182;-73
2023/01/17 06:03:58;;;;;;;2.92;1.42;;;2.20;99.90;;;;;;5026740;28;20191;-73
2023/01/17 06:06:24;;;;;;;3.33;1.80;;;2.20;99.90;;;;;;5013804;28;20208;-73
2023/01/17 06:08:49;;;;;;;1.52;1.52;;;2.10;99.90;;;;;;5026301;28;20627;-72
2023/01/17 06:11:16;;;;;;;2.17;1.70;;;1.90;99.90;;;;;;5018201;28;20188;-72
2023/01/17 06:13:42;;;;;;;2.25;1.70;;;1.80;99.90;;;;;;5027535;28;20204;-73
2023/01/17 06:16:07;;;;;;;1.60;1.60;;;1.80;99.90;;;;;;5025252;28;20191;-72
2023/01/17 06:18:33;;;;;;;1.80;1.70;;;1.70;99.90;;;;;;5014984;28;20185;-72
2023/01/17 06:20:58;;;;;;;2.20;1.40;;;1.80;99.90;;;;;;5017124;28;20184;-71
2023/01/17 06:23:24;;;;;;;1.80;1.70;;;1.70;99.90;;;;;;5024105;28;20204;-73
2023/01/17 06:25:50;;;;;;;2.53;1.92;;;1.60;99.90;;;;;;5022529;28;20173;-73
2023/01/17 06:28:18;;;;;;;3.17;2.20;;;1.50;99.90;;;;;;5019012;28;20195;-73
2023/01/17 06:30:45;;;;;;;2.47;2.38;;;1.40;99.90;;;;;;5022324;28;20181;-73
2023/01/17 06:33:11;;;;;;;1.88;1.67;;;1.20;99.90;;;;;;5018622;28;20347;-73
2023/01/17 06:35:39;;;;;;;2.58;2.00;;;1.00;99.90;;;;;;5022584;28;20591;-73
2023/01/17 06:38:05;;;;;;;2.10;2.00;;;0.90;99.90;;;;;;5003694;28;20188;-73
2023/01/17 06:40:30;;;;;;;2.53;2.05;;;0.80;99.90;;;;;;4999257;28;20723;-72
2023/01/17 06:43:00;;;;;;;1.87;1.77;;;0.80;99.90;;;;;;5013735;28;20248;-72
2023/01/17 06:45:28;;;;;;;2.15;2.05;;;0.80;99.90;;;;;;5009075;28;20552;-72
2023/01/17 06:47:54;;;;;;;3.60;3.40;;;0.80;99.90;;;;;;5009804;28;20169;-72
2023/01/17 06:50:20;;;;;;;3.20;2.80;;;0.70;99.90;;;;;;5009108;28;20189;-73
2023/01/17 06:52:59;;;;;;;2.73;2.40;;;0.70;99.90;;;;;;5017562;28;20193;-73
2023/01/17 06:55:27;;;;;;;5.80;3.33;;;0.70;99.90;;;;;;5024125;28;20173;-73
2023/01/17 06:57:54;;;;;;;5.03;3.70;;;0.60;99.90;;;;;;5013584;28;20181;-73
2023/01/17 07:00:20;;;;;;;3.97;3.43;;;0.60;99.90;;;;;;5027362;28;20189;-72
2023/01/17 07:02:49;;;;;;;4.77;3.43;;;0.60;99.90;;;;;;5014860;28;20282;-75
2023/01/17 07:05:16;;;;;;;4.32;3.53;;;0.70;99.90;;;;;;5018731;28;20591;-75
2023/01/17 07:07:42;;;;;;;3.97;3.27;;;0.70;99.90;;;;;;5032932;28;20180;-73
2023/01/17 07:10:08;;;;;;;6.27;3.90;;;0.80;99.90;;;;;;5032595;28;20176;-72
2023/01/17 07:12:34;;;;;;;12.10;9.60;;;0.80;99.90;;;;;;5023241;28;20196;-73
2023/01/17 07:15:00;;;;;;;6.57;5.63;;;1.00;99.90;;;;;;5017103;28;20177;-73
2023/01/17 07:17:25;;;;;;;5.20;3.85;;;1.10;99.90;;;;;;5019500;28;20185;-72
2023/01/17 07:19:51;;;;;;;2.65;2.53;;;1.20;99.90;;;;;;5019482;28;20190;-74
2023/01/17 07:22:17;;;;;;;2.65;2.45;;;1.30;99.90;;;;;;5014647;28;20220;-69
2023/01/17 07:24:42;;;;;;;2.72;2.53;;;1.40;99.90;;;;;;5023492;28;20240;-72
2023/01/17 07:27:08;;;;;;;2.35;2.15;;;1.60;99.90;;;;;;5017357;28;20263;-72
2023/01/17 07:29:33;;;;;;;2.50;2.30;;;1.70;99.90;;;;;;5025608;28;20588;-70
2023/01/17 07:31:59;;;;;;;2.38;2.20;;;1.80;99.90;;;;;;5010992;28;20185;-71
2023/01/17 07:34:24;;;;;;;2.40;2.20;;;1.90;99.90;;;;;;5033350;28;20257;-72
2023/01/17 07:36:50;;;;;;;2.42;2.08;;;2.00;99.90;;;;;;5016298;28;20223;-73
2023/01/17 07:39:16;;;;;;;2.85;1.98;;;2.10;99.90;;;;;;5018988;28;20181;-73
2023/01/17 07:41:41;;;;;;;2.63;2.42;;;2.20;99.90;;;;;;5022074;28;20266;-72
2023/01/17 07:44:09;;;;;;;2.33;2.13;;;2.30;99.90;;;;;;5010763;28;20216;-72
2023/01/17 07:46:35;;;;;;;2.70;2.42;;;2.40;99.90;;;;;;5023108;28;20542;-71
2023/01/17 07:49:01;;;;;;;2.35;2.20;;;2.60;99.90;;;;;;5022035;28;20185;-74
2023/01/17 07:51:27;;;;;;;4.03;1.83;;;2.60;99.90;;;;;;5022257;28;20177;-74
2023/01/17 07:53:52;;;;;;;1.80;1.70;;;2.60;99.90;;;;;;5022633;28;20242;-75
2023/01/17 07:56:18;;;;;;;3.22;2.00;;;2.70;99.90;;;;;;5027938;28;20188;-75
2023/01/17 07:58:43;;;;;;;2.13;2.03;;;2.80;99.90;;;;;;5022197;28;20225;-74
2023/01/17 08:01:11;;;;;;;2.85;2.10;;;2.80;99.90;;;;;;5024332;28;20199;-73
2023/01/17 08:03:40;;;;;;;2.03;1.92;;;2.90;99.90;;;;;;5012153;28;20204;-73
2023/01/17 08:06:14;;;;;;;1.65;1.55;;;3.00;99.90;;;;;;5012365;28;20197;-72
2023/01/17 08:08:39;;;;;;;1.70;1.60;;;3.10;99.90;;;;;;5018037;28;20206;-70
2023/01/17 08:11:05;;;;;;;4.28;1.95;;;3.30;99.90;;;;;;5012065;28;20341;-72
2023/01/17 08:13:30;;;;;;;1.60;1.50;;;3.40;99.90;;;;;;5010651;28;20204;-70
2023/01/17 08:15:56;;;;;;;1.90;1.80;;;3.40;99.90;;;;;;5020859;28;20271;-71
2023/01/17 08:18:22;;;;;;;2.42;2.03;;;3.50;99.90;;;;;;5013520;28;20185;-72
2023/01/17 08:20:47;;;;;;;1.67;1.58;;;3.50;99.90;;;;;;5021698;28;20602;-71
2023/01/17 08:23:13;;;;;;;2.13;1.90;;;3.50;99.90;;;;;;5030215;28;20215;-70
2023/01/17 08:25:38;;;;;;;1.98;1.75;;;3.50;99.90;;;;;;5024396;28;20216;-71
2023/01/17 08:28:04;;;;;;;1.92;1.83;;;3.60;99.90;;;;;;5014280;28;20185;-72
2023/01/17 08:30:30;;;;;;;1.88;1.77;;;3.80;99.90;;;;;;5016436;28;20213;-73
2023/01/17 08:32:55;;;;;;;2.13;1.70;;;3.90;99.90;;;;;;5020448;28;20201;-72
2023/01/17 08:35:21;;;;;;;3.28;1.73;;;4.10;99.90;;;;;;5021445;28;20577;-76
2023/01/17 08:37:51;;;;;;;1.90;1.80;;;4.10;99.90;;;;;;5019966;28;20179;-71
2023/01/17 08:40:18;;;;;;;2.08;1.65;;;4.20;99.90;;;;;;5014291;28;20181;-72
2023/01/17 08:42:44;;;;;;;1.88;1.73;;;4.10;99.90;;;;;;5012809;28;20556;-71
2023/01/17 08:45:10;;;;;;;2.20;2.00;;;3.90;99.90;;;;;;5019732;28;20184;-71
2023/01/17 08:47:36;;;;;;;2.95;2.45;;;3.90;99.90;;;;;;5025924;28;20186;-71
2023/01/17 08:50:05;;;;;;;1.63;1.50;;;3.80;99.90;;;;;;5018682;28;20193;-71
2023/01/17 08:52:32;;;;;;;2.17;2.00;;;3.60;99.90;;;;;;5013484;28;20186;-72
2023/01/17 08:54:58;;;;;;;2.58;1.75;;;3.50;99.90;;;;;;5024299;28;20545;-71
2023/01/17 08:57:23;;;;;;;1.48;1.33;;;3.40;99.90;;;;;;5021632;28;20177;-71
2023/01/17 08:59:49;;;;;;;1.73;1.63;;;3.40;99.90;;;;;;5018278;28;20184;-71
2023/01/17 09:02:17;;;;;;;1.70;1.60;;;3.50;99.90;;;;;;5014360;28;20176;-71
2023/01/17 09:04:48;;;;;;;1.95;1.80;;;3.50;99.90;;;;;;5016224;28;20251;-71
2023/01/17 09:07:15;;;;;;;1.63;1.60;;;3.50;99.90;;;;;;5018650;28;20185;-75
2023/01/17 09:09:41;;;;;;;2.50;1.63;;;3.50;99.90;;;;;;5014714;28;20284;-72
2023/01/17 09:12:06;;;;;;;1.70;1.70;;;3.80;99.90;;;;;;5024753;28;20259;-71
2023/01/17 09:14:33;;;;;;;2.10;2.00;;;4.10;99.90;;;;;;5009622;28;20251;-72
2023/01/17 09:16:59;;;;;;;1.90;1.80;;;4.50;99.90;;;;;;5020422;28;20223;-71
2023/01/17 09:19:24;;;;;;;2.97;1.70;;;4.90;99.90;;;;;;5004239;28;20209;-72
2023/01/17 09:21:50;;;;;;;2.17;1.70;;;5.20;99.90;;;;;;5021325;28;20632;-72
2023/01/17 09:24:15;;;;;;;1.58;1.48;;;5.30;99.90;;;;;;5024149;28;20213;-71
2023/01/17 09:26:41;;;;;;;1.70;1.70;;;5.40;99.90;;;;;;5021580;28;20227;-71
2023/01/17 09:29:07;;;;;;;1.95;1.85;;;5.40;99.90;;;;;;5023006;28;20185;-71
2023/01/17 09:31:32;;;;;;;2.03;1.90;;;5.60;99.90;;;;;;5017943;28;20189;-72
2023/01/17 09:33:58;;;;;;;2.13;1.77;;;6.50;99.90;;;;;;5021505;28;20288;-76
2023/01/17 09:36:27;;;;;;;3.47;2.00;;;8.10;99.90;;;;;;5015907;28;20178;-79
2023/01/17 09:38:57;;;;;;;2.05;1.90;;;9.80;99.90;;;;;;5017549;28;20192;-75
2023/01/17 09:41:29;;;;;;;1.75;1.65;;;11.40;99.90;;;;;;5013351;28;20177;-75
2023/01/17 09:44:10;;;;;;;1.45;1.17;;;13.10;95.60;;;;;;5016011;28;20215;-75
2023/01/17 09:46:43;;;;;;;2.65;1.50;;;14.40;90.00;;;;;;5014299;28;20308;-75
2023/01/17 09:49:19;;;;;;;1.70;1.60;;;15.70;81.50;;;;;;5027151;28;20230;-75
2023/01/17 09:51:45;;;;;;;1.23;1.13;;;16.50;75.80;;;;;;5020873;28;20180;-74
2023/01/17 09:54:22;;;;;;;2.20;1.33;;;17.20;70.80;;;;;;5012881;28;20254;-75
2023/01/17 09:57:08;;;;;;;1.00;1.00;;;17.90;67.10;;;;;;5019212;28;20176;-76
2023/01/17 10:02:52;;;;;;;1.10;1.10;;;18.40;61.00;;;;;;5027690;28;20212;-74
2023/01/17 10:05:44;;;;;;;1.05;1.00;;;18.90;59.00;;;;;;5014794;28;20216;-78
2023/01/17 10:08:36;;;;;;;1.40;1.08;;;19.10;58.00;;;;;;5016102;28;20203;-75
2023/01/17 10:11:37;;;;;;;1.13;0.93;;;19.20;56.90;;;;;;5027925;28;20238;-75
2023/01/17 10:14:08;;;;;;;1.25;1.20;;;18.80;57.40;;;;;;5015666;28;20213;-75
2023/01/17 10:16:40;;;;;;;1.00;0.90;;;18.30;57.30;;;;;;5019821;28;20324;-75
2023/01/17 10:19:12;;;;;;;1.30;0.90;;;16.90;57.60;;;;;;5025320;28;20192;-76
2023/01/17 10:22:15;;;;;;;1.05;0.90;;;15.30;61.10;;;;;;5021111;28;20179;-75
2023/01/17 10:24:54;;;;;;;0.80;0.80;;;14.00;64.90;;;;;;5019718;28;20323;-75
2023/01/17 10:27:41;;;;;;;1.27;1.00;;;13.10;68.30;;;;;;5008022;28;20532;-75
2023/01/17 10:30:35;;;;;;;3.53;1.20;;;12.50;69.20;;;;;;5018646;28;20223;-76
2023/01/17 10:33:19;;;;;;;2.13;1.25;;;12.90;70.00;;;;;;5014173;28;20535;-74
2023/01/17 10:36:14;;;;;;;0.75;0.75;;;13.00;69.60;;;;;;5017360;28;20173;-75
2023/01/17 10:38:46;;;;;;;0.88;0.88;;;14.90;66.00;;;;;;5024512;28;20173;-75
2023/01/17 10:41:39;;;;;;;0.85;0.85;;;17.30;61.20;;;;;;5018670;28;20216;-75
2023/01/17 10:44:53;;;;;;;0.90;0.90;;;19.70;56.00;;;;;;5024114;28;20678;-75
2023/01/17 10:47:21;;;;;;;0.90;0.90;;;21.20;52.60;;;;;;5011915;28;20275;-75
2023/01/17 10:49:56;;;;;;;1.13;0.70;;;22.30;52.00;;;;;;5029170;28;20219;-77
2023/01/17 10:53:11;;;;;;;0.95;0.93;;;23.70;49.70;;;;;;5021912;28;20265;-75
2023/01/17 10:55:44;;;;;;;0.93;0.93;;;24.90;47.40;;;;;;5016439;28;20592;-76
2023/01/17 10:58:11;;;;;;;0.70;0.70;;;26.40;45.40;;;;;;5016172;28;20180;-76
2023/01/17 11:00:55;;;;;;;0.90;0.90;;;27.40;43.70;;;;;;5016536;28;20603;-76
2023/01/17 11:03:22;;;;;;;0.88;0.88;;;28.30;41.60;;;;;;5021021;28;20216;-76
2023/01/17 11:06:21;;;;;;;0.95;0.95;;;28.10;40.80;;;;;;5022885;28;20664;-76
2023/01/17 11:08:55;;;;;;;1.15;1.13;;;25.70;42.00;;;;;;5018205;28;20204;-76
2023/01/17 11:11:32;;;;;;;3.60;1.20;;;23.70;44.00;;;;;;5011007;28;20186;-76
2023/01/17 11:14:03;;;;;;;2.13;1.23;;;21.20;46.10;;;;;;5011750;28;20200;-76
2023/01/17 11:16:30;;;;;;;1.33;1.23;;;19.40;48.40;;;;;;5015199;28;20311;-75
2023/01/17 11:19:04;;;;;;;1.50;1.27;;;17.60;50.50;;;;;;5022178;28;20208;-75
2023/01/17 11:21:31;;;;;;;1.08;1.08;;;17.20;52.70;;;;;;5024738;28;20211;-75
2023/01/17 11:24:11;;;;;;;0.90;0.90;;;17.70;53.20;;;;;;5036810;28;20253;-75
2023/01/17 11:26:48;;;;;;;1.50;1.35;;;19.20;51.10;;;;;;5020824;28;20469;-76
2023/01/17 11:29:31;;;;;;;1.05;1.05;;;21.10;49.90;;;;;;5022652;28;20198;-76
2023/01/17 11:32:15;;;;;;;1.02;0.98;;;22.80;47.30;;;;;;5023688;28;20644;-75
2023/01/17 11:34:41;;;;;;;1.13;1.05;;;22.60;46.00;;;;;;5019975;28;20279;-75
2023/01/17 11:37:17;;;;;;;1.58;1.10;;;21.20;47.60;;;;;;5024400;28;20714;-75
2023/01/17 11:39:43;;;;;;;1.13;1.02;;;19.50;48.80;;;;;;5017184;28;20285;-75
2023/01/17 11:42:30;;;;;;;6.28;1.52;;;17.80;50.30;;;;;;5015705;28;20188;-75
2023/01/17 11:45:23;;;;;;;0.70;0.70;;;15.90;53.00;;;;;;5018689;28;20208;-80
2023/01/17 11:48:11;;;;;;;1.33;0.80;;;17.50;52.50;;;;;;5020664;28;20205;-77
2023/01/17 11:50:43;;;;;;;0.60;0.60;;;19.40;49.50;;;;;;5029647;28;20223;-76
2023/01/17 11:53:39;;;;;;;0.80;0.80;;;21.10;47.50;;;;;;5014578;28;20684;-76
2023/01/17 11:56:17;;;;;;;0.60;0.60;;;22.50;45.90;;;;;;5022134;28;20181;-76
2023/01/17 11:58:46;;;;;;;1.63;0.88;;;23.30;44.00;;;;;;5029368;28;20545;-76
2023/01/17 12:01:40;;;;;;;0.75;0.75;;;24.00;44.10;;;;;;5023346;28;20255;-76
2023/01/17 12:04:21;;;;;;;1.35;1.10;;;24.80;42.60;;;;;;5020836;28;20223;-76
2023/01/17 12:07:12;;;;;;;1.15;0.65;;;25.40;42.00;;;;;;5016581;28;20180;-75
2023/01/17 12:09:59;;;;;;;1.38;1.00;;;25.60;41.30;;;;;;5016765;28;20268;-76
2023/01/17 12:15:43;;;;;;;1.30;1.20;;;23.50;42.20;;;;;;5023691;28;20207;-76
2023/01/17 12:18:25;;;;;;;1.17;1.08;;;22.50;44.20;;;;;;5019321;28;20188;-76
2023/01/17 12:21:14;;;;;;;1.45;0.90;;;23.00;43.50;;;;;;5022021;28;20207;-76
2023/01/17 12:24:04;;;;;;;1.08;0.82;;;23.20;44.40;;;;;;5016046;28;20288;-76
2023/01/17 12:26:44;;;;;;;0.88;0.88;;;23.60;43.80;;;;;;5024964;28;20184;-76
2023/01/17 12:29:26;;;;;;;0.98;0.98;;;24.10;43.10;;;;;;5019880;28;20184;-76
2023/01/17 12:32:26;;;;;;;1.65;0.90;;;24.10;43.20;;;;;;5028833;28;20169;-76
2023/01/17 12:34:59;;;;;;;1.00;0.90;;;23.60;42.90;;;;;;5020945;28;20177;-75
2023/01/17 12:37:33;;;;;;;0.80;0.80;;;23.30;43.30;;;;;;5025088;28;20379;-76
2023/01/17 12:40:01;;;;;;;0.77;0.77;;;22.60;43.80;;;;;;5030983;28;20185;-76
2023/01/17 12:42:42;;;;;;;1.02;0.93;;;22.60;43.50;;;;;;5032972;28;20180;-76
2023/01/17 12:45:23;;;;;;;2.25;0.95;;;22.60;42.80;;;;;;5024032;28;20688;-75
2023/01/17 12:47:58;;;;;;;0.68;0.68;;;21.90;43.70;;;;;;5036355;28;20177;-76
2023/01/17 12:50:40;;;;;;;0.77;0.77;;;21.30;43.70;;;;;;5028022;28;20182;-75
2023/01/17 12:53:31;;;;;;;1.23;1.00;;;20.40;44.70;;;;;;5018345;28;20196;-76
2023/01/17 12:56:02;;;;;;;1.50;1.35;;;19.50;45.60;;;;;;5026261;28;20188;-76
2023/01/17 12:58:37;;;;;;;1.20;1.10;;;18.30;47.50;;;;;;5029863;28;20181;-75
2023/01/17 13:01:14;;;;;;;1.27;1.10;;;17.50;49.30;;;;;;5023440;28;20184;-75
2023/01/17 13:04:02;;;;;;;1.20;1.15;;;16.90;50.00;;;;;;5031330;28;20220;-75
2023/01/17 13:06:37;;;;;;;2.08;1.00;;;16.20;51.20;;;;;;5013013;28;20184;-76
2023/01/17 13:09:04;;;;;;;1.38;1.17;;;16.30;52.10;;;;;;5015320;28;20181;-75
2023/01/17 13:11:40;;;;;;;0.80;0.77;;;16.20;51.80;;;;;;5020434;28;20172;-76
2023/01/17 13:14:08;;;;;;;1.42;1.33;;;16.10;51.50;;;;;;5017884;28;20263;-75
2023/01/17 13:17:11;;;;;;;1.00;1.00;;;15.90;52.10;;;;;;5025452;28;20179;-76
2023/01/17 13:19:51;;;;;;;0.73;0.73;;;15.60;51.80;;;;;;5024013;28;20189;-75
2023/01/17 13:22:18;;;;;;;2.55;1.08;;;15.20;53.00;;;;;;5029207;28;20183;-75
2023/01/17 13:25:15;;;;;;;1.10;1.02;;;14.90;53.50;;;;;;5023195;28;20270;-75
2023/01/17 13:27:51;;;;;;;0.65;0.65;;;14.50;54.20;;;;;;5017727;28;20184;-75
2023/01/17 13:30:25;;;;;;;0.98;0.98;;;14.20;54.80;;;;;;5023801;28;20173;-75
2023/01/17 13:32:54;;;;;;;1.10;1.10;;;13.70;56.00;;;;;;5012833;28;20667;-76
2023/01/17 13:35:34;;;;;;;2.25;1.30;;;13.20;56.70;;;;;;5033723;28;20181;-76
2023/01/17 13:38:35;;;;;;;1.00;1.00;;;13.00;56.90;;;;;;5015895;28;20222;-76
2023/01/17 13:41:24;;;;;;;1.23;1.13;;;12.80;57.00;;;;;;5018164;28;20200;-76
2023/01/17 13:46:59;;;;;;;1.17;1.17;;;12.00;59.20;;;;;;5026501;28;20696;-75
2023/01/17 13:49:28;;;;;;;0.98;0.98;;;11.60;60.70;;;;;;5021822;28;20633;-75
2023/01/17 13:52:03;;;;;;;1.50;1.40;;;11.30;62.10;;;;;;5025156;28;20240;-75
2023/01/17 13:54:33;;;;;;;1.45;1.20;;;11.00;63.90;;;;;;5023739;28;20208;-75
2023/01/17 13:57:24;;;;;;;1.45;1.35;;;11.00;65.20;;;;;;5024386;28;20185;-75
2023/01/17 13:59:51;;;;;;;1.80;1.70;;;10.90;66.70;;;;;;5007048;28;20195;-76
2023/01/17 14:02:32;;;;;;;1.48;1.38;;;10.90;67.50;;;;;;5029965;28;20562;-76
2023/01/17 14:05:06;;;;;;;1.88;1.60;;;10.70;68.50;;;;;;5012061;28;20203;-76
2023/01/17 14:07:34;;;;;;;1.50;1.40;;;10.60;68.90;;;;;;5025475;28;20540;-76
2023/01/17 14:10:00;;;;;;;1.73;1.48;;;10.40;69.10;;;;;;5024001;28;20193;-76
2023/01/17 14:12:30;;;;;;;1.75;1.40;;;10.30;70.00;;;;;;5027575;28;20706;-75
2023/01/17 14:14:59;;;;;;;1.40;1.30;;;10.10;70.10;;;;;;5027562;28;20199;-75
2023/01/17 14:17:32;;;;;;;1.52;1.42;;;9.90;71.70;;;;;;5014444;28;20236;-75
2023/01/17 14:20:24;;;;;;;1.52;1.42;;;9.80;71.90;;;;;;5022566;28;20208;-75
2023/01/17 14:23:00;;;;;;;1.60;1.50;;;9.50;72.30;;;;;;5012860;28;20227;-75
2023/01/17 14:25:39;;;;;;;3.90;1.55;;;9.30;73.20;;;;;;5026606;28;20188;-76
2023/01/17 14:28:28;;;;;;;1.55;1.45;;;9.20;74.60;;;;;;5022378;28;20539;-76
2023/01/17 14:30:55;;;;;;;2.05;1.55;;;9.00;74.60;;;;;;5006226;28;20178;-75
2023/01/17 14:33:25;;;;;;;1.65;1.55;;;8.90;75.20;;;;;;5017722;28;20234;-75
2023/01/17 14:35:59;;;;;;;1.48;1.40;;;8.80;75.80;;;;;;5009727;28;20212;-75
2023/01/17 14:38:27;;;;;;;1.30;1.30;;;8.60;76.00;;;;;;5019525;28;20335;-75
2023/01/17 14:41:03;;;;;;;1.48;1.33;;;8.50;76.40;;;;;;5031073;28;20226;-75
2023/01/17 14:43:32;;;;;;;6.32;1.42;;;8.40;76.60;;;;;;5018726;28;20220;-75
2023/01/17 14:46:04;;;;;;;2.05;1.67;;;8.30;76.40;;;;;;5026387;28;20173;-75